Terminal Aerodrome Forecast
Issued by NWS Cleveland, OH

Home | Current Version | Previous Version | Graphics & Text | Print | Product List | Glossary On
Versions: 1 2 3 4 5 6 7 8 9 10 11 12 13 14 15 16 17 18 19 20 21 22 23 24 25 26 27
000
FTUS41 KCLE 211100 CCA
TAFTOL
TAF COR
KTOL 211134Z 2112/2212 25004KT 5SM BR SCT025 BKN090
      TEMPO 2112/2114 2SM BR
     FM211400 26006KT P6SM SCT040 BKN120
     FM220200 23005KT 5SM BR VCTS BKN035CB OVC080
      TEMPO 2208/2212 1SM +TSRA BR BKN015CB OVC025=

USA.gov is the U.S. government's official web portal to all federal, state and local government web resources and services.